Time;durP1;ratioP1;P1;durP2;ratioP2;P2;SDS_P1;SDS_P2;PMS_P1;PMS_P2;Temp;Humidity;BMP_temperature;BMP_pressure;BME280_temperature;BME280_humidity;BME280_pressure;Samples;Min_cycle;Max_cycle;Signal;HPM_P1;HPM_P2
2021/04/21 00:02:07;;;;;;;14.87;13.30;;;8.00;99.90;;;;;;5050010;28;20439;-65
2021/04/21 00:04:34;;;;;;;14.63;12.93;;;8.00;99.90;;;;;;5037091;28;20498;-65
2021/04/21 00:07:00;;;;;;;14.33;12.70;;;8.10;99.90;;;;;;5049317;28;20166;-65
2021/04/21 00:09:26;;;;;;;15.60;13.90;;;8.10;99.90;;;;;;5044514;28;20464;-65
2021/04/21 00:11:53;;;;;;;14.43;12.93;;;8.10;99.90;;;;;;5042323;28;20256;-65
2021/04/21 00:14:23;;;;;;;15.27;13.67;;;8.10;99.90;;;;;;5045010;28;20481;-65
2021/04/21 00:16:55;;;;;;;15.57;13.97;;;8.10;99.90;;;;;;5050072;28;20491;-65
2021/04/21 00:19:23;;;;;;;19.90;14.20;;;8.10;99.90;;;;;;5045327;28;20429;-65
2021/04/21 00:21:49;;;;;;;15.57;13.97;;;8.00;99.90;;;;;;5045588;28;20454;-65
2021/04/21 00:24:16;;;;;;;17.33;13.60;;;8.00;99.90;;;;;;5038313;28;20508;-65
2021/04/21 00:26:44;;;;;;;16.53;13.37;;;7.90;99.90;;;;;;5034067;28;20436;-65
2021/04/21 00:29:11;;;;;;;15.00;13.50;;;7.80;99.90;;;;;;5046364;28;20929;-65
2021/04/21 00:31:38;;;;;;;20.67;17.10;;;7.70;99.90;;;;;;5050078;28;20555;-65
2021/04/21 00:34:04;;;;;;;16.30;14.40;;;7.80;99.90;;;;;;5039835;28;20443;-65
2021/04/21 00:36:34;;;;;;;16.30;14.60;;;7.80;99.90;;;;;;5049011;28;20474;-65
2021/04/21 00:39:02;;;;;;;16.93;15.07;;;7.80;99.90;;;;;;5053494;28;20423;-65
2021/04/21 00:41:35;;;;;;;18.37;14.10;;;7.70;99.90;;;;;;5053673;28;20489;-65
2021/04/21 00:44:12;;;;;;;18.40;14.53;;;7.70;99.90;;;;;;5053656;28;20441;-65
2021/04/21 00:46:57;;;;;;;19.80;14.90;;;7.70;99.90;;;;;;5053645;28;20462;-65
2021/04/21 00:49:36;;;;;;;17.73;15.77;;;7.70;99.90;;;;;;5053289;28;20439;-65
2021/04/21 00:52:18;;;;;;;15.40;13.80;;;7.70;99.90;;;;;;5053028;28;20857;-65
2021/04/21 00:54:51;;;;;;;15.50;13.30;;;7.70;99.90;;;;;;5052188;28;20660;-65
2021/04/21 00:57:27;;;;;;;16.20;14.00;;;7.60;99.90;;;;;;5047801;28;20428;-65
2021/04/21 00:59:59;;;;;;;16.57;13.67;;;7.50;99.90;;;;;;5045014;28;20439;-65
2021/04/21 01:02:29;;;;;;;21.03;16.30;;;7.50;99.90;;;;;;5051384;28;20446;-65
2021/04/21 01:04:57;;;;;;;19.13;15.00;;;7.50;99.90;;;;;;5046570;28;20439;-65
2021/04/21 01:07:24;;;;;;;19.43;15.27;;;7.50;99.90;;;;;;5052123;28;20534;-65
2021/04/21 01:09:53;;;;;;;20.00;15.40;;;7.60;99.90;;;;;;5052589;28;20431;-65
2021/04/21 01:12:22;;;;;;;14.87;13.33;;;7.70;99.90;;;;;;5051899;28;20534;-65
2021/04/21 01:14:51;;;;;;;17.33;14.43;;;7.60;99.90;;;;;;5052815;28;20428;-65
2021/04/21 01:17:19;;;;;;;17.23;15.10;;;7.60;99.90;;;;;;5050526;28;20524;-65
2021/04/21 01:19:59;;;;;;;17.43;14.77;;;7.50;99.90;;;;;;5042019;28;20429;-65
2021/04/21 01:22:25;;;;;;;18.40;16.50;;;7.30;99.90;;;;;;5036833;28;20467;-65
2021/04/21 01:25:15;;;;;;;19.73;15.43;;;7.30;99.90;;;;;;5047280;28;20949;-65
2021/04/21 01:28:01;;;;;;;25.00;18.50;;;7.30;99.90;;;;;;5052264;28;20227;-64
2021/04/21 01:30:30;;;;;;;21.47;16.63;;;7.30;99.90;;;;;;5052122;28;20455;-65
2021/04/21 01:32:59;;;;;;;24.60;18.50;;;7.30;99.90;;;;;;5052091;28;20424;-65
2021/04/21 01:35:27;;;;;;;19.03;15.67;;;7.30;99.90;;;;;;5052590;28;20506;-65
2021/04/21 01:37:57;;;;;;;18.70;14.83;;;7.40;99.90;;;;;;5051131;28;20937;-65
2021/04/21 01:40:30;;;;;;;22.70;16.53;;;7.40;99.90;;;;;;5047314;28;20431;-65
2021/04/21 01:43:01;;;;;;;21.50;18.10;;;7.40;99.90;;;;;;5037560;28;20952;-65
2021/04/21 01:45:29;;;;;;;21.13;16.93;;;7.40;99.90;;;;;;5050753;28;20447;-65
2021/04/21 01:47:59;;;;;;;21.90;18.13;;;7.30;99.90;;;;;;5050672;28;20464;-65
2021/04/21 01:50:25;;;;;;;22.80;17.70;;;7.40;99.90;;;;;;5047895;28;20506;-65
2021/04/21 01:53:22;;;;;;;19.70;17.60;;;7.30;99.90;;;;;;5051973;28;20477;-65
2021/04/21 01:56:18;;;;;;;21.23;17.27;;;7.30;99.90;;;;;;5025420;28;20452;-65
2021/04/21 01:58:49;;;;;;;22.10;17.37;;;7.40;99.90;;;;;;5045914;28;20536;-65
2021/04/21 02:01:38;;;;;;;19.67;16.63;;;7.30;99.90;;;;;;5044044;28;21012;-65
2021/04/21 02:04:51;;;;;;;21.70;18.33;;;7.30;99.90;;;;;;5041459;28;20432;-65
2021/04/21 02:07:46;;;;;;;24.67;20.10;;;7.20;99.90;;;;;;4971560;28;20572;-65
2021/04/21 02:10:27;;;;;;;25.13;21.53;;;7.10;99.90;;;;;;5028272;28;20519;-65
2021/04/21 02:13:03;;;;;;;25.00;19.13;;;7.00;99.90;;;;;;5037824;28;20420;-65
2021/04/21 02:15:40;;;;;;;23.53;19.40;;;6.90;99.90;;;;;;5046788;28;20460;-65
2021/04/21 02:18:39;;;;;;;26.73;20.73;;;6.90;99.90;;;;;;5051705;28;20971;-65
2021/04/21 02:21:28;;;;;;;23.57;19.10;;;6.90;99.90;;;;;;5039193;28;20498;-65
2021/04/21 02:24:17;;;;;;;26.13;20.60;;;7.00;99.90;;;;;;5051617;28;20499;-65
2021/04/21 02:26:52;;;;;;;29.50;22.13;;;7.00;99.90;;;;;;5049326;28;20428;-65
2021/04/21 02:29:39;;;;;;;27.37;21.73;;;7.00;99.90;;;;;;5050748;28;20438;-65
2021/04/21 02:32:31;;;;;;;27.80;21.67;;;7.10;99.90;;;;;;5036288;28;20453;-65
2021/04/21 02:35:05;;;;;;;28.57;21.90;;;7.10;99.90;;;;;;5033970;28;20498;-65
2021/04/21 02:37:58;;;;;;;29.93;22.60;;;7.10;99.90;;;;;;5050253;28;20431;-65
2021/04/21 02:41:06;;;;;;;28.37;22.30;;;7.10;99.90;;;;;;5050843;28;20550;-65
2021/04/21 02:43:59;;;;;;;24.70;19.73;;;7.10;99.90;;;;;;5046305;28;20512;-65
2021/04/21 02:46:44;;;;;;;24.80;21.00;;;7.20;99.90;;;;;;5049511;28;20439;-65
2021/04/21 02:49:38;;;;;;;29.40;20.93;;;7.10;99.90;;;;;;5050911;28;20438;-65
2021/04/21 02:52:04;;;;;;;26.83;20.23;;;7.00;99.90;;;;;;5050443;28;20455;-65
2021/04/21 02:54:45;;;;;;;26.20;21.83;;;7.00;99.90;;;;;;5042903;28;20424;-65
2021/04/21 02:57:20;;;;;;;28.00;21.77;;;6.90;99.90;;;;;;5050986;28;20434;-65
2021/04/21 03:00:00;;;;;;;26.23;21.57;;;6.90;99.90;;;;;;5046123;28;20785;-65
2021/04/21 03:02:45;;;;;;;24.07;19.80;;;6.80;99.90;;;;;;5037559;28;20526;-65
2021/04/21 03:05:22;;;;;;;28.53;21.93;;;6.90;99.90;;;;;;5044315;28;20440;-65
2021/04/21 03:07:57;;;;;;;27.57;22.00;;;6.80;99.90;;;;;;5048109;28;20435;-66
2021/04/21 03:10:29;;;;;;;27.87;21.23;;;6.80;99.90;;;;;;5048771;28;20920;-66
2021/04/21 03:13:08;;;;;;;29.40;22.47;;;6.80;99.90;;;;;;5050022;28;20480;-66
2021/04/21 03:15:39;;;;;;;28.70;23.03;;;6.80;99.90;;;;;;5046390;28;20459;-65
2021/04/21 03:18:07;;;;;;;24.33;21.37;;;6.80;99.90;;;;;;5049716;28;20776;-66
2021/04/21 03:20:33;;;;;;;25.10;21.00;;;6.90;99.90;;;;;;5031811;28;20543;-65
2021/04/21 03:23:03;;;;;;;25.07;21.30;;;6.90;99.90;;;;;;5048727;28;20428;-65
2021/04/21 03:25:39;;;;;;;26.60;20.23;;;6.80;99.90;;;;;;5040762;28;20437;-66
2021/04/21 03:28:09;;;;;;;32.47;21.83;;;6.80;99.90;;;;;;5049837;28;20489;-66
2021/04/21 03:30:35;;;;;;;26.73;20.87;;;6.70;99.90;;;;;;5042180;28;20973;-65
2021/04/21 03:33:22;;;;;;;28.97;21.57;;;6.60;99.90;;;;;;5047809;28;20438;-65
2021/04/21 03:35:52;;;;;;;24.87;19.70;;;6.60;99.90;;;;;;5047397;28;20460;-65
2021/04/21 03:38:20;;;;;;;29.93;22.37;;;6.60;99.90;;;;;;5034730;28;20477;-65
2021/04/21 03:40:46;;;;;;;28.70;23.00;;;6.60;99.90;;;;;;5049440;28;20455;-65
2021/04/21 03:43:12;;;;;;;27.87;20.83;;;6.50;99.90;;;;;;5050152;28;20795;-66
2021/04/21 03:45:40;;;;;;;31.23;23.83;;;6.50;99.90;;;;;;5030151;28;20424;-65
2021/04/21 03:48:07;;;;;;;27.43;22.50;;;6.40;99.90;;;;;;5048745;28;20440;-66
2021/04/21 03:50:34;;;;;;;27.27;22.10;;;6.40;99.90;;;;;;5035797;28;20834;-65
2021/04/21 03:53:03;;;;;;;28.27;21.83;;;6.30;99.90;;;;;;5044986;28;21004;-65
2021/04/21 03:55:30;;;;;;;26.63;23.37;;;6.50;99.90;;;;;;5045159;28;20476;-66
2021/04/21 03:57:59;;;;;;;26.30;22.53;;;6.40;99.90;;;;;;5049572;28;20423;-66
2021/04/21 04:00:26;;;;;;;23.43;20.90;;;6.50;99.90;;;;;;5048986;28;20443;-65
2021/04/21 04:03:17;;;;;;;29.60;23.67;;;6.40;99.90;;;;;;5043736;28;20637;-65
2021/04/21 04:05:59;;;;;;;26.33;21.30;;;6.40;99.90;;;;;;5043001;28;20451;-65
2021/04/21 04:08:26;;;;;;;27.97;20.07;;;6.50;99.90;;;;;;5049402;28;20435;-65
2021/04/21 04:10:55;;;;;;;36.87;26.27;;;6.50;99.90;;;;;;5046337;28;20453;-65
2021/04/21 04:13:24;;;;;;;32.60;24.50;;;6.40;99.90;;;;;;5049522;28;20426;-66
2021/04/21 04:15:52;;;;;;;27.90;23.80;;;6.30;99.90;;;;;;5051134;28;20816;-66
2021/04/21 04:18:21;;;;;;;28.67;22.63;;;6.50;99.90;;;;;;5041912;28;20510;-66
2021/04/21 04:20:50;;;;;;;23.83;21.23;;;6.50;99.90;;;;;;5052647;28;20490;-65
2021/04/21 04:23:19;;;;;;;28.70;22.10;;;6.50;99.90;;;;;;5053718;28;20434;-65
2021/04/21 04:25:52;;;;;;;25.07;21.07;;;6.40;99.90;;;;;;5053522;28;20470;-66
2021/04/21 04:28:19;;;;;;;27.17;21.20;;;6.40;99.90;;;;;;5053513;28;20435;-66
2021/04/21 04:30:46;;;;;;;27.33;21.73;;;6.40;99.90;;;;;;5053110;28;20447;-65
2021/04/21 04:33:16;;;;;;;28.33;22.27;;;6.60;99.90;;;;;;5053678;28;20463;-66
2021/04/21 04:35:42;;;;;;;26.37;21.40;;;6.30;99.90;;;;;;5053661;28;20456;-65
2021/04/21 04:38:08;;;;;;;23.10;20.23;;;6.30;99.90;;;;;;5051183;28;20474;-65
2021/04/21 04:40:34;;;;;;;27.20;21.77;;;6.30;99.90;;;;;;5053059;28;20349;-66
2021/04/21 04:43:00;;;;;;;29.40;22.93;;;6.30;99.90;;;;;;5053651;28;20465;-66
2021/04/21 04:45:28;;;;;;;28.40;21.73;;;6.40;99.90;;;;;;5053407;28;20427;-66
2021/04/21 04:47:57;;;;;;;41.03;29.73;;;6.40;99.90;;;;;;5053308;28;20194;-65
2021/04/21 04:50:23;;;;;;;29.57;22.90;;;6.40;99.90;;;;;;5052735;28;20435;-65
2021/04/21 04:52:51;;;;;;;27.40;22.43;;;6.50;99.90;;;;;;5053163;28;20520;-66
2021/04/21 04:55:19;;;;;;;25.07;21.27;;;6.50;99.90;;;;;;5053322;28;20466;-66
2021/04/21 04:57:46;;;;;;;25.67;20.30;;;6.50;99.90;;;;;;5053972;28;20518;-65
2021/04/21 05:00:15;;;;;;;25.23;20.30;;;6.60;99.90;;;;;;5052662;28;20779;-65
2021/04/21 05:03:05;;;;;;;28.30;22.50;;;6.70;99.90;;;;;;5053175;28;20913;-65
2021/04/21 05:05:34;;;;;;;24.40;20.93;;;6.70;99.90;;;;;;5026979;28;20528;-66
2021/04/21 05:08:06;;;;;;;26.80;20.30;;;6.80;99.90;;;;;;5049505;28;20960;-65
2021/04/21 05:10:41;;;;;;;27.90;20.87;;;6.80;99.90;;;;;;5041305;28;20464;-65
2021/04/21 05:13:12;;;;;;;28.93;21.40;;;7.00;99.90;;;;;;5043632;28;20960;-66
2021/04/21 05:15:38;;;;;;;24.53;20.50;;;7.00;99.90;;;;;;5043860;28;20479;-65
2021/04/21 05:18:22;;;;;;;25.10;20.93;;;7.10;99.90;;;;;;5047182;28;20862;-66
2021/04/21 05:21:25;;;;;;;27.23;21.30;;;7.30;99.90;;;;;;5043953;28;20189;-66
2021/04/21 05:24:10;;;;;;;25.20;21.00;;;7.40;99.90;;;;;;5041976;28;20429;-66
2021/04/21 05:27:23;;;;;;;23.67;20.90;;;7.50;99.90;;;;;;5052119;28;20523;-65
2021/04/21 05:30:33;;;;;;;27.50;20.60;;;7.60;99.90;;;;;;5041804;28;20423;-65
2021/04/21 05:33:26;;;;;;;25.23;21.67;;;7.80;99.90;;;;;;5050306;28;20480;-66
2021/04/21 05:36:01;;;;;;;31.63;21.80;;;7.90;99.90;;;;;;5043810;28;20498;-66
2021/04/21 05:39:00;;;;;;;23.87;19.27;;;8.10;99.90;;;;;;5049604;28;20419;-66
2021/04/21 05:41:28;;;;;;;28.83;21.83;;;8.10;99.90;;;;;;5051663;28;20478;-66
2021/04/21 05:44:02;;;;;;;27.00;21.60;;;8.30;99.90;;;;;;5042288;28;21101;-68
2021/04/21 05:47:11;;;;;;;24.90;21.70;;;8.30;99.90;;;;;;5050656;28;20933;-65
2021/04/21 05:49:53;;;;;;;25.23;21.47;;;8.40;99.90;;;;;;5043843;28;20482;-65
2021/04/21 05:52:47;;;;;;;26.67;21.57;;;8.50;99.90;;;;;;5052210;28;20823;-67
2021/04/21 05:55:24;;;;;;;25.27;21.37;;;8.60;99.90;;;;;;5051094;28;20569;-66
2021/04/21 05:58:01;;;;;;;30.17;23.10;;;8.80;99.90;;;;;;5046137;28;20420;-66
2021/04/21 06:01:02;;;;;;;26.50;23.10;;;9.10;99.90;;;;;;5048805;28;20436;-66
2021/04/21 06:03:29;;;;;;;26.37;21.13;;;9.30;99.90;;;;;;5032786;28;20516;-65
2021/04/21 06:06:04;;;;;;;25.60;21.73;;;9.50;99.90;;;;;;5049163;28;20432;-65
2021/04/21 06:08:31;;;;;;;31.80;20.83;;;9.60;99.90;;;;;;5049700;28;20431;-67
2021/04/21 06:10:57;;;;;;;25.37;21.60;;;9.80;99.90;;;;;;5038846;28;20558;-67
2021/04/21 06:13:30;;;;;;;23.43;20.83;;;10.10;99.90;;;;;;5043616;28;20525;-67
2021/04/21 06:15:57;;;;;;;30.70;22.73;;;10.30;99.90;;;;;;5040276;28;20475;-66
2021/04/21 06:18:23;;;;;;;31.50;21.40;;;10.30;99.90;;;;;;5035614;28;21140;-66
2021/04/21 06:20:49;;;;;;;26.00;21.57;;;10.50;99.90;;;;;;5039737;28;20547;-67
2021/04/21 06:23:21;;;;;;;27.70;21.80;;;10.30;99.90;;;;;;5034401;28;20228;-67
2021/04/21 06:25:48;;;;;;;26.03;22.17;;;10.30;99.90;;;;;;5032287;28;20868;-67
2021/04/21 06:28:22;;;;;;;25.20;21.33;;;10.50;99.90;;;;;;5023166;28;20429;-66
2021/04/21 06:31:10;;;;;;;24.30;21.47;;;10.70;99.90;;;;;;5036159;28;20479;-66
2021/04/21 06:33:41;;;;;;;24.20;21.60;;;10.90;99.90;;;;;;5040769;28;20432;-67
2021/04/21 06:36:09;;;;;;;26.63;23.73;;;11.10;99.90;;;;;;5039381;28;20463;-66
2021/04/21 06:38:37;;;;;;;23.80;20.60;;;11.30;99.90;;;;;;5037672;28;20966;-67
2021/04/21 06:41:02;;;;;;;27.27;22.43;;;11.50;99.90;;;;;;5037706;28;20533;-66
2021/04/21 06:43:33;;;;;;;27.87;22.57;;;11.80;99.90;;;;;;5036858;28;20526;-66
2021/04/21 06:45:59;;;;;;;29.30;25.27;;;12.00;99.90;;;;;;5040179;28;20223;-70
2021/04/21 06:48:30;;;;;;;29.03;23.30;;;12.00;99.90;;;;;;5036643;28;20436;-66
2021/04/21 06:51:09;;;;;;;27.17;23.30;;;12.00;99.90;;;;;;5040134;28;20537;-66
2021/04/21 06:53:34;;;;;;;26.87;22.97;;;12.00;99.90;;;;;;5030335;28;20448;-66
2021/04/21 06:56:00;;;;;;;27.23;24.17;;;11.90;99.90;;;;;;5019702;28;20510;-66
2021/04/21 06:58:28;;;;;;;44.50;24.67;;;12.00;99.90;;;;;;5038758;28;20671;-66
2021/04/21 07:00:54;;;;;;;24.27;21.43;;;12.20;99.90;;;;;;5036707;28;20306;-66
2021/04/21 07:03:20;;;;;;;25.90;21.83;;;12.30;99.90;;;;;;5042668;28;20527;-67
2021/04/21 07:05:48;;;;;;;27.30;23.60;;;12.50;99.90;;;;;;5038787;28;21019;-66
2021/04/21 07:08:28;;;;;;;27.03;24.10;;;12.80;99.90;;;;;;5035646;28;20489;-66
2021/04/21 07:10:55;;;;;;;24.07;21.77;;;13.10;99.90;;;;;;5022873;28;20832;-66
2021/04/21 07:13:36;;;;;;;26.97;24.07;;;13.40;99.90;;;;;;5034380;28;20891;-66
2021/04/21 07:16:08;;;;;;;26.07;23.13;;;13.70;99.90;;;;;;5038530;28;20900;-66
2021/04/21 07:18:36;;;;;;;29.70;24.20;;;13.90;99.90;;;;;;5036479;28;20777;-66
2021/04/21 07:21:05;;;;;;;28.87;24.20;;;14.10;99.90;;;;;;5038662;28;20456;-66
2021/04/21 07:23:33;;;;;;;26.37;22.60;;;14.20;99.90;;;;;;5032999;28;20420;-66
2021/04/21 07:25:59;;;;;;;28.70;25.10;;;14.50;99.90;;;;;;5033945;28;20436;-66
2021/04/21 07:28:25;;;;;;;26.80;23.77;;;14.70;99.90;;;;;;5038932;28;20450;-66
2021/04/21 07:30:53;;;;;;;25.67;22.97;;;14.90;99.90;;;;;;5031842;28;20212;-66
2021/04/21 07:33:42;;;;;;;25.50;23.10;;;15.10;99.90;;;;;;5041437;28;20584;-66
2021/04/21 07:36:13;;;;;;;29.90;26.70;;;15.40;99.90;;;;;;5035103;28;20783;-66
2021/04/21 07:38:44;;;;;;;25.87;23.07;;;15.40;99.90;;;;;;5036472;28;20796;-66
2021/04/21 07:41:11;;;;;;;27.93;24.90;;;15.60;99.90;;;;;;5036312;28;20489;-66
2021/04/21 07:43:39;;;;;;;31.07;27.57;;;15.90;99.90;;;;;;5038887;28;20446;-66
2021/04/21 07:46:04;;;;;;;29.30;26.20;;;16.00;99.90;;;;;;5039497;28;20501;-66
2021/04/21 07:48:33;;;;;;;25.23;22.57;;;16.20;99.90;;;;;;5032793;28;20520;-66
2021/04/21 07:51:24;;;;;;;26.37;23.57;;;16.40;99.90;;;;;;5038355;28;20679;-65
2021/04/21 07:54:01;;;;;;;25.17;22.60;;;16.40;99.90;;;;;;5020021;28;20436;-66
2021/04/21 07:56:34;;;;;;;24.47;21.90;;;16.60;99.90;;;;;;5034453;28;20455;-66
2021/04/21 07:59:22;;;;;;;23.73;21.20;;;16.70;99.90;;;;;;5033126;28;20467;-66
2021/04/21 08:01:48;;;;;;;24.87;22.03;;;17.00;99.90;;;;;;5041409;28;20505;-66
2021/04/21 08:04:14;;;;;;;24.00;21.60;;;17.00;99.90;;;;;;5033230;28;20566;-66
2021/04/21 08:06:41;;;;;;;22.30;20.20;;;17.10;99.90;;;;;;5033132;28;20928;-66
2021/04/21 08:09:06;;;;;;;23.00;20.60;;;17.40;99.90;;;;;;5035609;28;20177;-66
2021/04/21 08:11:32;;;;;;;23.37;21.07;;;17.30;99.90;;;;;;5037899;28;20813;-66
2021/04/21 08:13:57;;;;;;;23.83;21.27;;;17.50;99.90;;;;;;5042750;28;20211;-66
2021/04/21 08:16:30;;;;;;;23.80;20.80;;;17.40;99.90;;;;;;5032875;28;20197;-66
2021/04/21 08:18:56;;;;;;;25.83;23.37;;;17.60;99.90;;;;;;5037616;28;20204;-66
2021/04/21 08:21:46;;;;;;;23.10;20.90;;;17.30;99.90;;;;;;5036498;28;20447;-66
2021/04/21 08:24:14;;;;;;;24.03;21.60;;;17.30;99.90;;;;;;5037842;28;20427;-66
2021/04/21 08:26:54;;;;;;;21.53;19.30;;;17.30;99.90;;;;;;5040574;28;20487;-66
2021/04/21 08:29:20;;;;;;;24.20;21.53;;;17.60;99.90;;;;;;5036122;28;20458;-66
2021/04/21 08:31:53;;;;;;;23.07;20.47;;;17.90;99.90;;;;;;5043385;28;20965;-66
2021/04/21 08:34:19;;;;;;;22.40;20.40;;;18.10;99.90;;;;;;5035887;28;20433;-66
2021/04/21 08:36:45;;;;;;;25.73;19.87;;;18.40;99.90;;;;;;5044986;28;20478;-66
2021/04/21 08:39:12;;;;;;;21.60;19.40;;;18.40;99.90;;;;;;5033380;28;20212;-66
2021/04/21 08:41:39;;;;;;;23.00;20.63;;;18.60;99.90;;;;;;5033806;28;20519;-66
2021/04/21 08:44:06;;;;;;;21.27;19.10;;;19.00;99.90;;;;;;5043873;28;20428;-66
2021/04/21 08:46:32;;;;;;;21.03;17.40;;;19.20;99.90;;;;;;5041262;28;20499;-66
2021/04/21 08:48:59;;;;;;;23.93;18.07;;;19.10;99.30;;;;;;5039973;28;20482;-66
2021/04/21 08:51:27;;;;;;;19.70;17.70;;;19.20;98.80;;;;;;5040630;28;20213;-66
2021/04/21 08:54:09;;;;;;;19.97;18.10;;;18.70;97.20;;;;;;5033139;28;20468;-66
2021/04/21 08:56:37;;;;;;;20.40;18.43;;;19.20;98.30;;;;;;5040543;28;20545;-66
2021/04/21 08:59:05;;;;;;;18.90;17.20;;;19.50;97.20;;;;;;5044252;28;20428;-66
2021/04/21 09:01:31;;;;;;;22.10;19.90;;;19.60;97.00;;;;;;5048439;28;20458;-66
2021/04/21 09:03:57;;;;;;;19.43;17.60;;;19.60;95.90;;;;;;5044063;28;20431;-66
2021/04/21 09:06:22;;;;;;;19.10;17.20;;;19.60;96.40;;;;;;5042977;28;20431;-66
2021/04/21 09:08:54;;;;;;;17.80;16.10;;;20.10;95.90;;;;;;5038841;28;20465;-66
2021/04/21 09:11:20;;;;;;;20.83;18.80;;;20.20;95.40;;;;;;5041211;28;20200;-66
2021/04/21 09:13:47;;;;;;;20.43;18.30;;;20.50;94.70;;;;;;5040906;28;20436;-66
2021/04/21 09:16:13;;;;;;;18.67;16.87;;;20.10;94.50;;;;;;5043047;28;20263;-67
2021/04/21 09:18:39;;;;;;;18.67;17.00;;;20.00;94.70;;;;;;5047891;28;20427;-66
2021/04/21 09:21:14;;;;;;;21.20;18.87;;;20.00;94.30;;;;;;5042931;28;20982;-66
2021/04/21 09:23:42;;;;;;;19.27;17.37;;;19.90;94.60;;;;;;5041543;28;20173;-66
2021/04/21 09:26:16;;;;;;;19.77;17.93;;;20.30;94.70;;;;;;5040123;28;20437;-66
2021/04/21 09:28:43;;;;;;;22.23;20.13;;;20.70;94.60;;;;;;5041084;28;20820;-65
2021/04/21 09:31:17;;;;;;;19.90;18.00;;;21.50;92.30;;;;;;5044273;28;20858;-67
2021/04/21 09:33:44;;;;;;;20.17;18.10;;;22.10;90.10;;;;;;5036577;28;20486;-67
2021/04/21 09:36:10;;;;;;;20.67;18.83;;;22.40;84.80;;;;;;5040332;28;20456;-66
2021/04/21 09:38:36;;;;;;;21.80;19.30;;;23.50;63.60;;;;;;5043599;28;20434;-67
2021/04/21 09:41:14;;;;;;;21.40;19.20;;;23.90;60.70;;;;;;5018190;28;20189;-66
2021/04/21 09:43:41;;;;;;;20.50;18.70;;;24.60;58.80;;;;;;5042384;28;20440;-66
2021/04/21 09:46:17;;;;;;;19.90;17.90;;;24.90;56.80;;;;;;5053158;28;20431;-66
2021/04/21 09:48:45;;;;;;;19.43;17.70;;;25.10;55.40;;;;;;5038309;28;20830;-66
2021/04/21 09:51:20;;;;;;;19.23;17.60;;;25.20;54.20;;;;;;5038935;28;20475;-66
2021/04/21 09:53:48;;;;;;;19.37;17.67;;;25.40;54.30;;;;;;5042510;28;20524;-66
2021/04/21 09:56:25;;;;;;;18.13;16.33;;;25.00;51.70;;;;;;5043844;28;20462;-66
2021/04/21 09:58:54;;;;;;;19.80;18.00;;;25.20;51.70;;;;;;5039339;28;20514;-66
2021/04/21 10:01:31;;;;;;;18.83;17.10;;;25.80;50.50;;;;;;5046903;28;20447;-66
2021/04/21 10:04:16;;;;;;;18.03;16.53;;;26.50;50.10;;;;;;5048553;28;20459;-65
2021/04/21 10:06:50;;;;;;;19.50;17.57;;;26.90;48.50;;;;;;5042860;28;20995;-66
2021/04/21 10:09:31;;;;;;;23.43;21.53;;;27.70;46.80;;;;;;5041793;28;20906;-65
2021/04/21 10:12:18;;;;;;;15.40;14.10;;;28.60;45.70;;;;;;5050911;28;20461;-66
2021/04/21 10:15:01;;;;;;;17.63;15.67;;;29.10;44.70;;;;;;5047457;28;20439;-68
2021/04/21 10:17:28;;;;;;;16.00;14.80;;;29.10;42.90;;;;;;5044126;28;20428;-68
2021/04/21 10:19:54;;;;;;;16.40;15.00;;;29.60;41.80;;;;;;5050376;28;20538;-69
2021/04/21 10:22:19;;;;;;;16.20;14.90;;;30.10;40.10;;;;;;5051172;28;20542;-69
2021/04/21 10:24:47;;;;;;;18.17;16.67;;;31.30;39.70;;;;;;5050718;28;20431;-69
2021/04/21 10:27:14;;;;;;;16.63;15.33;;;31.70;37.10;;;;;;5050961;28;20169;-69
2021/04/21 10:29:40;;;;;;;16.57;15.17;;;31.00;37.20;;;;;;5033069;28;20428;-68
2021/04/21 10:32:06;;;;;;;15.40;14.20;;;31.00;36.90;;;;;;5050121;28;20493;-68
2021/04/21 10:34:33;;;;;;;15.20;14.00;;;31.70;36.50;;;;;;5030046;28;20485;-68
2021/04/21 10:37:00;;;;;;;16.50;15.17;;;31.90;36.00;;;;;;5051057;28;20470;-68
2021/04/21 10:39:34;;;;;;;16.53;15.33;;;32.30;34.70;;;;;;5049540;28;20435;-68
2021/04/21 10:42:17;;;;;;;16.70;15.50;;;31.60;35.00;;;;;;5042680;28;20972;-68
2021/04/21 10:44:45;;;;;;;15.47;14.27;;;31.30;34.80;;;;;;5050279;28;20442;-68
2021/04/21 10:47:16;;;;;;;15.50;14.20;;;31.10;34.80;;;;;;5045929;28;20427;-68
2021/04/21 10:50:00;;;;;;;16.17;14.77;;;30.40;35.20;;;;;;5032146;28;20455;-68
2021/04/21 10:52:25;;;;;;;14.77;13.50;;;29.20;35.50;;;;;;5049961;28;20463;-68
2021/04/21 10:54:59;;;;;;;16.00;14.80;;;28.20;37.10;;;;;;5050806;28;21007;-67
2021/04/21 10:57:31;;;;;;;16.40;15.00;;;27.50;37.50;;;;;;5046639;28;20845;-68
2021/04/21 11:00:30;;;;;;;13.80;12.80;;;27.70;37.10;;;;;;5030988;28;20471;-68
2021/04/21 11:03:06;;;;;;;15.33;13.83;;;27.90;37.60;;;;;;4999387;28;20820;-70
2021/04/21 11:05:41;;;;;;;15.90;14.50;;;28.40;36.60;;;;;;5047538;28;20960;-70
2021/04/21 11:08:08;;;;;;;15.50;14.00;;;27.60;36.10;;;;;;5045728;28;20435;-69
2021/04/21 11:10:40;;;;;;;15.37;13.90;;;27.60;36.20;;;;;;5049290;28;20501;-70
2021/04/21 11:13:08;;;;;;;15.17;13.97;;;27.70;36.20;;;;;;5050735;28;20435;-70
2021/04/21 11:15:44;;;;;;;15.30;14.00;;;27.20;36.70;;;;;;5046958;28;20468;-70
2021/04/21 11:18:13;;;;;;;15.50;14.00;;;25.40;37.30;;;;;;5049367;28;20510;-70
2021/04/21 11:20:47;;;;;;;16.87;15.37;;;24.30;39.20;;;;;;5048958;28;20794;-70
2021/04/21 11:24:00;;;;;;;15.00;13.77;;;24.30;39.80;;;;;;5049282;28;20794;-70
2021/04/21 11:26:26;;;;;;;15.03;13.73;;;25.20;38.50;;;;;;5046522;28;20424;-70
2021/04/21 11:29:19;;;;;;;15.43;14.23;;;26.40;38.00;;;;;;5049445;28;20470;-70
2021/04/21 11:31:53;;;;;;;13.43;12.30;;;28.00;36.20;;;;;;5041694;28;20478;-70
2021/04/21 11:34:28;;;;;;;14.77;13.57;;;30.80;34.80;;;;;;5046961;28;20427;-70
2021/04/21 11:37:17;;;;;;;14.63;13.33;;;31.70;32.40;;;;;;5043859;28;20495;-70
2021/04/21 11:39:43;;;;;;;13.23;12.13;;;32.30;32.70;;;;;;5045037;28;20765;-70
2021/04/21 11:42:20;;;;;;;13.47;12.57;;;32.60;31.40;;;;;;5044832;28;20459;-70
2021/04/21 11:44:59;;;;;;;13.50;12.40;;;33.90;31.20;;;;;;5049205;28;20455;-70
2021/04/21 11:47:34;;;;;;;14.27;13.17;;;35.70;29.50;;;;;;5049789;28;20447;-70
2021/04/21 11:49:59;;;;;;;13.10;12.10;;;36.80;28.80;;;;;;5031250;28;20441;-70
2021/04/21 11:52:52;;;;;;;15.13;14.03;;;36.30;28.60;;;;;;5049710;28;20743;-70
2021/04/21 11:55:23;;;;;;;13.23;12.30;;;36.30;29.80;;;;;;5031796;28;20197;-70
2021/04/21 11:57:54;;;;;;;12.93;11.93;;;36.50;39.80;;;;;;5049418;28;20482;-70
2021/04/21 12:00:39;;;;;;;13.50;12.60;;;35.90;38.40;;;;;;5031327;28;20778;-70
2021/04/21 12:03:13;;;;;;;13.23;12.20;;;36.30;39.70;;;;;;5047106;28;20809;-70
2021/04/21 12:05:39;;;;;;;13.60;12.07;;;35.70;41.00;;;;;;5049383;28;20458;-70
2021/04/21 12:08:06;;;;;;;12.13;11.10;;;36.70;43.00;;;;;;5045942;28;20443;-70
2021/04/21 12:10:36;;;;;;;12.77;11.67;;;36.00;41.70;;;;;;5049042;28;20462;-70
2021/04/21 12:13:12;;;;;;;12.27;11.37;;;32.90;41.60;;;;;;5048891;28;20451;-69
2021/04/21 12:15:37;;;;;;;13.50;12.47;;;30.60;43.60;;;;;;5049129;28;20901;-70
2021/04/21 12:18:04;;;;;;;14.13;12.63;;;28.90;44.70;;;;;;5048064;28;20431;-69
2021/04/21 12:20:31;;;;;;;13.17;12.17;;;27.10;32.10;;;;;;5049103;28;20475;-69
2021/04/21 12:22:57;;;;;;;13.13;11.97;;;26.10;33.50;;;;;;5046681;28;20465;-69
2021/04/21 12:25:25;;;;;;;13.10;11.90;;;25.10;34.70;;;;;;5031295;28;20835;-69
2021/04/21 12:27:53;;;;;;;13.30;12.00;;;24.50;35.00;;;;;;5048475;28;20235;-70
2021/04/21 12:30:21;;;;;;;12.67;11.57;;;24.30;35.20;;;;;;5043328;28;20427;-69
2021/04/21 12:32:47;;;;;;;11.47;10.40;;;23.70;35.80;;;;;;5049709;28;20438;-69
2021/04/21 12:35:14;;;;;;;11.03;10.13;;;23.70;36.30;;;;;;5047151;28;20433;-69
2021/04/21 12:37:40;;;;;;;10.27;9.47;;;24.80;35.20;;;;;;5052075;28;20174;-70
2021/04/21 12:40:21;;;;;;;9.77;9.00;;;25.00;34.20;;;;;;5053068;28;20435;-69
2021/04/21 12:42:48;;;;;;;10.67;9.77;;;25.10;34.20;;;;;;5044572;28;20252;-69
2021/04/21 12:45:30;;;;;;;11.30;10.20;;;24.60;34.00;;;;;;5053130;28;20432;-70
2021/04/21 12:47:56;;;;;;;10.77;9.87;;;24.30;34.00;;;;;;5052396;28;20431;-70
2021/04/21 12:50:31;;;;;;;14.00;11.30;;;24.50;34.10;;;;;;5052366;28;20454;-70
2021/04/21 12:53:10;;;;;;;11.77;9.67;;;25.40;33.60;;;;;;5033444;28;20556;-69
2021/04/21 12:55:36;;;;;;;10.33;9.53;;;26.40;33.30;;;;;;5052821;28;20994;-70
2021/04/21 12:58:01;;;;;;;13.20;11.93;;;26.40;32.90;;;;;;5052350;28;20435;-70
2021/04/21 13:00:28;;;;;;;14.13;12.73;;;26.40;32.60;;;;;;5052000;28;20185;-70
2021/04/21 13:02:54;;;;;;;12.10;10.90;;;25.00;33.10;;;;;;5051188;28;20647;-70